createdAt,value
2022-11-15T00:00:28.116Z,90.19
2022-11-15T00:03:19.605Z,90.83
2022-11-15T00:06:06.307Z,90.74
2022-11-15T00:08:53.218Z,90.89
2022-11-15T00:11:40.027Z,90.41
2022-11-15T00:14:26.841Z,90.22
2022-11-15T00:17:13.036Z,90.11
2022-11-15T00:19:59.722Z,89.94
2022-11-15T00:22:46.245Z,89.77
2022-11-15T00:25:33.984Z,90.14
2022-11-15T00:28:20.479Z,89.81
2022-11-15T00:31:09.952Z,88.82
2022-11-15T00:33:56.081Z,88.32
2022-11-15T00:36:42.772Z,88.10
2022-11-15T00:39:29.255Z,88.01
2022-11-15T00:42:16.274Z,87.94
2022-11-15T00:45:03.468Z,88.18
2022-11-15T00:47:49.961Z,88.68
2022-11-15T00:50:36.542Z,88.53
2022-11-15T00:53:23.207Z,88.42
2022-11-15T00:56:09.707Z,88.23
2022-11-15T00:58:56.518Z,88.19
2022-11-15T01:01:43.429Z,88.04
2022-11-15T01:04:30.241Z,88.01
2022-11-15T01:07:16.731Z,87.50
2022-11-15T01:10:04.579Z,87.18
2022-11-15T01:12:51.388Z,87.40
2022-11-15T01:15:41.857Z,87.56
2022-11-15T01:18:28.387Z,87.47
2022-11-15T01:21:17.723Z,87.53
2022-11-15T01:24:04.772Z,87.81
2022-11-15T01:26:51.767Z,87.90
2022-11-15T01:29:38.321Z,87.82
2022-11-15T01:32:25.000Z,87.85
2022-11-15T01:35:11.683Z,87.64
2022-11-15T01:37:58.518Z,87.69
2022-11-15T01:40:45.061Z,88.34
2022-11-15T01:43:37.412Z,88.08
2022-11-15T01:46:29.544Z,88.11
2022-11-15T01:49:19.364Z,88.02
2022-11-15T01:52:11.347Z,87.91
2022-11-15T01:55:10.685Z,87.85
2022-11-15T01:58:05.614Z,87.77
2022-11-15T02:00:53.285Z,87.66
2022-11-15T02:03:51.584Z,87.75
2022-11-15T02:06:39.458Z,87.76
2022-11-15T02:09:26.368Z,88.03
2022-11-15T02:12:16.247Z,88.20
2022-11-15T02:15:05.282Z,87.99
2022-11-15T02:18:13.732Z,87.99
2022-11-15T02:21:00.166Z,88.19
2022-11-15T02:24:05.993Z,88.26
2022-11-15T02:27:04.984Z,88.55
2022-11-15T02:30:20.681Z,88.41
2022-11-15T02:33:22.945Z,87.73
2022-11-15T02:36:44.996Z,87.91
2022-11-15T02:39:46.473Z,88.21
2022-11-15T02:43:02.116Z,88.00
2022-11-15T02:46:05.833Z,88.00
2022-11-15T02:48:52.791Z,87.94
2022-11-15T02:51:40.840Z,87.93
2022-11-15T02:54:31.055Z,87.85
2022-11-15T02:57:23.757Z,88.00
2022-11-15T03:00:15.470Z,88.83
2022-11-15T03:03:25.191Z,88.92
2022-11-15T03:06:43.407Z,88.62
2022-11-15T03:09:53.494Z,88.49
2022-11-15T03:12:53.719Z,88.32
2022-11-15T03:15:50.741Z,88.25
2022-11-15T03:18:44.723Z,88.38
2022-11-15T03:21:34.204Z,88.11
2022-11-15T03:24:25.806Z,88.12
2022-11-15T03:27:20.396Z,88.09
2022-11-15T03:30:09.729Z,88.09
2022-11-15T03:32:58.996Z,88.43
2022-11-15T03:35:47.261Z,88.53
2022-11-15T03:38:36.167Z,88.84
2022-11-15T03:41:29.189Z,88.97
2022-11-15T03:44:37.655Z,89.42
2022-11-15T03:47:37.464Z,89.52
2022-11-15T03:50:25.679Z,89.44
2022-11-15T03:53:14.055Z,89.27
2022-11-15T03:56:00.763Z,89.59
2022-11-15T03:58:47.366Z,89.64
2022-11-15T04:01:33.814Z,89.52
2022-11-15T04:04:20.470Z,89.94
2022-11-15T04:07:07.042Z,90.27
2022-11-15T04:10:03.428Z,90.04
2022-11-15T04:12:50.361Z,89.93
2022-11-15T04:15:37.548Z,90.13
2022-11-15T04:18:25.387Z,90.22
2022-11-15T04:21:30.933Z,89.93
2022-11-15T04:24:17.947Z,90.09
2022-11-15T04:27:04.964Z,90.26
2022-11-15T04:29:51.875Z,90.82
2022-11-15T04:32:38.893Z,90.45
2022-11-15T04:35:25.675Z,91.38
2022-11-15T04:38:12.186Z,91.68
2022-11-15T04:40:58.807Z,90.84
2022-11-15T04:43:45.269Z,91.26
2022-11-15T04:46:31.813Z,91.11
2022-11-15T04:49:18.725Z,90.92
2022-11-15T04:52:05.331Z,91.13
2022-11-15T04:54:52.012Z,90.87
2022-11-15T04:57:39.323Z,91.20
2022-11-15T05:00:25.862Z,91.13
2022-11-15T05:03:31.544Z,91.42
2022-11-15T05:06:18.240Z,90.93
2022-11-15T05:09:05.224Z,90.89
2022-11-15T05:11:51.706Z,90.99
2022-11-15T05:14:37.986Z,91.13
2022-11-15T05:17:24.690Z,90.86
2022-11-15T05:20:12.220Z,90.77
2022-11-15T05:22:58.814Z,91.15
2022-11-15T05:25:45.550Z,91.16
2022-11-15T05:28:32.566Z,90.90
2022-11-15T05:31:19.328Z,90.73
2022-11-15T05:34:07.023Z,90.95
2022-11-15T05:36:54.465Z,91.09
2022-11-15T05:39:41.495Z,91.27
2022-11-15T05:42:28.898Z,91.27
2022-11-15T05:45:16.239Z,91.07
2022-11-15T05:48:07.760Z,90.95
2022-11-15T05:50:54.595Z,90.67
2022-11-15T05:53:41.826Z,90.46
2022-11-15T05:56:30.607Z,90.33
2022-11-15T05:59:18.249Z,90.38
2022-11-15T06:02:04.822Z,90.34
2022-11-15T06:04:51.991Z,90.32
2022-11-15T06:07:38.791Z,90.37
2022-11-15T06:10:25.926Z,90.14
2022-11-15T06:13:12.149Z,90.16
2022-11-15T06:15:59.306Z,90.11
2022-11-15T06:18:45.980Z,90.22
2022-11-15T06:21:32.959Z,90.01
2022-11-15T06:24:19.787Z,89.94
2022-11-15T06:27:06.379Z,89.99
2022-11-15T06:29:52.957Z,89.72
2022-11-15T06:32:39.525Z,89.35
2022-11-15T06:35:26.150Z,89.16
2022-11-15T06:38:12.915Z,89.11
2022-11-15T06:41:08.588Z,89.14
2022-11-15T06:43:55.025Z,89.04
2022-11-15T06:49:31.858Z,88.88
2022-11-15T06:52:20.161Z,88.88
2022-11-15T06:55:07.245Z,88.90
2022-11-15T06:57:54.506Z,88.71
2022-11-15T07:00:41.320Z,88.78
2022-11-15T07:03:28.028Z,88.66
2022-11-15T07:06:14.732Z,88.49
2022-11-15T07:09:04.296Z,88.55
2022-11-15T07:11:51.128Z,88.52
2022-11-15T07:14:37.856Z,88.68
2022-11-15T07:17:24.225Z,88.54
2022-11-15T07:20:11.922Z,88.50
2022-11-15T07:23:02.987Z,88.63
2022-11-15T07:25:49.576Z,88.30
2022-11-15T07:28:36.597Z,88.13
2022-11-15T07:31:23.573Z,88.04
2022-11-15T07:34:11.048Z,87.85
2022-11-15T07:36:57.492Z,87.86
2022-11-15T07:39:44.985Z,87.59
2022-11-15T07:42:51.073Z,87.52
2022-11-15T07:45:45.251Z,87.05
2022-11-15T07:48:42.806Z,86.81
2022-11-15T07:51:30.598Z,86.73
2022-11-15T07:54:17.093Z,85.92
2022-11-15T07:57:07.331Z,85.84
2022-11-15T07:59:54.988Z,85.20
2022-11-15T08:02:43.460Z,85.03
2022-11-15T08:05:30.035Z,84.91
2022-11-15T08:08:16.782Z,84.35
2022-11-15T08:11:03.301Z,84.29
2022-11-15T08:13:49.912Z,82.73
2022-11-15T08:16:36.776Z,83.30
2022-11-15T08:19:23.547Z,82.61
2022-11-15T08:25:03.179Z,83.02
2022-11-15T08:27:53.896Z,82.95
2022-11-15T08:30:43.772Z,82.98
2022-11-15T08:33:31.391Z,83.08
2022-11-15T08:36:18.353Z,83.06
2022-11-15T08:39:06.092Z,81.79
2022-11-15T08:41:52.506Z,81.10
2022-11-15T08:44:38.953Z,81.42
2022-11-15T08:47:25.450Z,81.57
2022-11-15T08:50:11.899Z,80.92
2022-11-15T08:52:58.868Z,80.88
2022-11-15T08:55:45.422Z,80.35
2022-11-15T08:58:32.200Z,79.72
2022-11-15T09:01:20.698Z,79.04
2022-11-15T09:04:07.109Z,79.47
2022-11-15T09:06:53.961Z,78.71
2022-11-15T09:09:41.257Z,77.55
2022-11-15T09:12:27.513Z,77.21
2022-11-15T09:15:14.306Z,77.48
2022-11-15T09:18:00.901Z,77.21
2022-11-15T09:20:47.620Z,76.83
2022-11-15T09:23:34.435Z,76.89
2022-11-15T09:26:20.812Z,77.49
2022-11-15T09:29:07.497Z,77.63
2022-11-15T09:31:54.314Z,77.43
2022-11-15T09:34:41.046Z,77.24
2022-11-15T09:37:27.955Z,76.58
2022-11-15T09:40:18.530Z,76.65
2022-11-15T09:43:31.037Z,76.65
2022-11-15T09:46:26.489Z,77.31
2022-11-15T09:49:18.177Z,77.07
2022-11-15T09:52:00.075Z,76.99
2022-11-15T09:54:52.256Z,76.90
2022-11-15T09:57:41.179Z,77.30
2022-11-15T10:00:51.532Z,77.54
2022-11-15T10:03:24.961Z,77.55
2022-11-15T10:05:56.130Z,77.55
2022-11-15T10:08:49.335Z,77.34
2022-11-15T10:11:36.776Z,77.49
2022-11-15T10:14:17.112Z,77.39
2022-11-15T10:16:56.364Z,77.13
2022-11-15T10:19:36.686Z,77.28
2022-11-15T10:22:16.934Z,77.14
2022-11-15T10:24:46.884Z,77.61
2022-11-15T10:27:17.389Z,77.37
2022-11-15T10:29:47.223Z,77.61
2022-11-15T10:32:19.131Z,77.37
2022-11-15T10:34:49.761Z,76.91
2022-11-15T10:37:32.444Z,76.28
2022-11-15T10:40:15.949Z,76.30
2022-11-15T10:42:43.919Z,75.50
2022-11-15T10:45:39.206Z,75.16
2022-11-15T10:48:13.079Z,75.45
2022-11-15T10:50:43.625Z,75.19
2022-11-15T10:53:31.881Z,74.61
2022-11-15T10:56:12.368Z,74.28
2022-11-15T10:58:43.993Z,74.38
2022-11-15T11:01:21.090Z,73.75
2022-11-15T11:04:09.612Z,73.75
2022-11-15T11:06:51.050Z,73.45
2022-11-15T11:09:35.384Z,73.47
2022-11-15T11:12:05.869Z,73.50
2022-11-15T11:14:37.906Z,73.64
2022-11-15T11:17:31.776Z,73.93
2022-11-15T11:20:15.939Z,74.50
2022-11-15T11:23:23.486Z,74.15
2022-11-15T11:26:25.561Z,74.19
2022-11-15T11:29:18.788Z,74.30
2022-11-15T11:31:58.821Z,74.31
2022-11-15T11:34:35.506Z,74.43
2022-11-15T11:37:18.764Z,74.45
2022-11-15T11:40:14.015Z,74.29
2022-11-15T11:43:09.965Z,74.09
2022-11-15T11:45:37.811Z,73.72
2022-11-15T11:48:21.690Z,73.36
2022-11-15T11:50:50.520Z,73.31
2022-11-15T11:53:43.912Z,73.53
2022-11-15T11:56:25.325Z,73.24
2022-11-15T11:58:57.708Z,73.21
2022-11-15T12:01:36.079Z,73.22
2022-11-15T12:04:17.342Z,73.22
2022-11-15T12:06:59.115Z,72.98
2022-11-15T12:09:48.634Z,73.12
2022-11-15T12:12:28.822Z,72.61
2022-11-15T12:15:18.749Z,72.60
2022-11-15T12:17:49.235Z,72.07
2022-11-15T12:20:43.331Z,71.82
2022-11-15T12:23:44.476Z,71.95
2022-11-15T12:26:16.905Z,71.98
2022-11-15T12:29:07.074Z,72.42
2022-11-15T12:31:36.403Z,72.82
2022-11-15T12:34:23.077Z,73.15
2022-11-15T12:36:52.591Z,72.92
2022-11-15T12:39:21.839Z,72.36
2022-11-15T12:41:55.441Z,72.08
2022-11-15T12:44:32.621Z,71.85
2022-11-15T12:47:04.337Z,71.68
2022-11-15T12:49:38.213Z,71.70
2022-11-15T12:52:08.570Z,71.74
2022-11-15T12:54:42.321Z,71.51
2022-11-15T12:57:35.373Z,71.66
2022-11-15T13:00:38.065Z,72.04
2022-11-15T13:03:25.460Z,72.06
2022-11-15T13:05:59.449Z,71.61
2022-11-15T13:08:42.001Z,71.58
2022-11-15T13:11:49.420Z,71.60
2022-11-15T13:14:36.184Z,71.57
2022-11-15T13:17:19.787Z,71.27
2022-11-15T13:19:49.965Z,70.68
2022-11-15T13:22:36.634Z,70.26
2022-11-15T13:25:05.196Z,70.52
2022-11-15T13:27:33.176Z,70.83
2022-11-15T13:30:14.533Z,70.14
2022-11-15T13:32:42.498Z,70.30
2022-11-15T13:35:10.324Z,70.46
2022-11-15T13:37:38.210Z,70.56
2022-11-15T13:40:23.241Z,70.71
2022-11-15T13:42:51.526Z,71.18
2022-11-15T13:45:20.504Z,70.90
2022-11-15T13:47:58.686Z,70.98
2022-11-15T13:50:39.815Z,71.28
2022-11-15T13:53:07.891Z,71.31
2022-11-15T13:55:36.228Z,71.19
2022-11-15T13:58:07.451Z,71.58
2022-11-15T14:00:45.748Z,72.01
2022-11-15T14:03:25.651Z,72.38
2022-11-15T14:06:11.528Z,72.58
2022-11-15T14:09:00.089Z,72.78
2022-11-15T14:11:28.543Z,73.07
2022-11-15T14:14:16.802Z,73.37
2022-11-15T14:16:50.265Z,73.87
2022-11-15T14:19:21.111Z,74.13
2022-11-15T14:22:07.563Z,74.18
2022-11-15T14:24:35.659Z,74.39
2022-11-15T14:27:30.203Z,74.50
2022-11-15T14:29:58.848Z,74.95
2022-11-15T14:32:31.321Z,74.83
2022-11-15T14:35:02.258Z,75.13
2022-11-15T14:37:35.770Z,75.13
2022-11-15T14:40:06.537Z,75.54
2022-11-15T14:42:34.371Z,75.98
2022-11-15T14:45:02.301Z,75.76
2022-11-15T14:47:30.232Z,76.00
2022-11-15T14:49:58.072Z,75.93
2022-11-15T14:52:32.778Z,76.26
2022-11-15T14:55:03.412Z,76.64
2022-11-15T14:57:31.825Z,76.89
2022-11-15T14:59:59.936Z,77.15
2022-11-15T15:02:43.135Z,77.36
2022-11-15T15:05:15.599Z,77.58
2022-11-15T15:07:44.175Z,77.92
2022-11-15T15:13:01.578Z,78.15
2022-11-15T15:15:38.949Z,78.09
2022-11-15T15:18:09.591Z,78.30
2022-11-15T15:20:40.704Z,78.47
2022-11-15T15:23:18.067Z,78.58
2022-11-15T15:25:48.936Z,78.65
2022-11-15T15:28:16.599Z,78.64
2022-11-15T15:30:44.829Z,78.68
2022-11-15T15:33:12.841Z,78.76
2022-11-15T15:35:40.857Z,78.88
2022-11-15T15:38:12.455Z,79.00
2022-11-15T15:40:40.444Z,79.18
2022-11-15T15:43:10.182Z,79.39
2022-11-15T15:45:40.427Z,79.36
2022-11-15T15:48:17.274Z,79.35
2022-11-15T15:50:46.142Z,79.31
2022-11-15T15:53:14.486Z,79.37
2022-11-15T15:55:42.285Z,79.50
2022-11-15T15:58:10.210Z,79.63
2022-11-15T16:00:39.889Z,80.00
2022-11-15T16:03:07.813Z,80.48
2022-11-15T16:05:35.964Z,80.73
2022-11-15T16:08:05.599Z,81.05
2022-11-15T16:10:38.176Z,81.37
2022-11-15T16:13:06.073Z,81.87
2022-11-15T16:15:34.436Z,82.37
2022-11-15T16:18:03.388Z,83.08
2022-11-15T16:20:36.321Z,83.75
2022-11-15T16:23:09.558Z,85.11
2022-11-15T16:25:42.881Z,85.57
2022-11-15T16:28:32.240Z,86.03
2022-11-15T16:31:03.478Z,86.87
2022-11-15T16:33:32.287Z,87.27
2022-11-15T16:36:00.437Z,87.79
2022-11-15T16:38:28.349Z,88.06
2022-11-15T16:40:56.282Z,89.18
2022-11-15T16:43:24.322Z,89.75
2022-11-15T16:45:52.888Z,90.41
2022-11-15T16:48:26.680Z,90.64
2022-11-15T16:50:57.550Z,92.01
2022-11-15T16:53:27.640Z,94.52
2022-11-15T16:55:56.223Z,95.39
2022-11-15T16:58:24.993Z,96.04
2022-11-15T17:00:55.305Z,95.90
2022-11-15T17:03:24.586Z,93.55
2022-11-15T17:05:52.899Z,93.16
2022-11-15T17:08:22.171Z,93.34
2022-11-15T17:10:50.163Z,93.74
2022-11-15T17:13:18.089Z,93.23
2022-11-15T17:15:46.023Z,94.99
2022-11-15T17:18:15.722Z,95.47
2022-11-15T17:20:43.864Z,95.15
2022-11-15T17:23:14.843Z,94.26
2022-11-15T17:25:44.285Z,94.78
2022-11-15T17:28:12.279Z,95.12
2022-11-15T17:30:43.487Z,95.11
2022-11-15T17:33:11.483Z,95.99
2022-11-15T17:35:39.296Z,96.17
2022-11-15T17:38:07.407Z,96.37
2022-11-15T17:40:35.497Z,96.44
2022-11-15T17:43:05.702Z,97.01
2022-11-15T17:45:33.756Z,97.89
2022-11-15T17:48:01.612Z,97.70
2022-11-15T17:50:29.509Z,98.25
2022-11-15T17:52:59.815Z,98.18
2022-11-15T17:55:27.745Z,97.68
2022-11-15T17:57:55.625Z,97.02
2022-11-15T18:00:23.489Z,97.03
2022-11-15T18:02:51.382Z,97.74
2022-11-15T18:05:19.273Z,97.41
2022-11-15T18:07:47.054Z,98.44
2022-11-15T18:10:15.063Z,97.95
2022-11-15T18:12:43.050Z,97.82
2022-11-15T18:15:11.473Z,98.17
2022-11-15T18:17:39.400Z,98.38
2022-11-15T18:20:07.882Z,97.97
2022-11-15T18:22:35.781Z,98.60
2022-11-15T18:25:03.967Z,98.77
2022-11-15T18:27:31.997Z,98.02
2022-11-15T18:29:59.877Z,98.35
2022-11-15T18:32:27.778Z,98.27
2022-11-15T18:34:55.611Z,98.07
2022-11-15T18:37:23.734Z,98.42
2022-11-15T18:39:54.006Z,98.49
2022-11-15T18:42:22.122Z,98.87
2022-11-15T18:44:50.094Z,98.82
2022-11-15T18:47:17.913Z,99.14
2022-11-15T18:49:45.947Z,99.41
2022-11-15T18:52:13.737Z,99.59
2022-11-15T18:54:41.609Z,99.52
2022-11-15T18:57:09.705Z,99.65
2022-11-15T18:59:37.625Z,99.92
2022-11-15T19:02:05.361Z,99.91
2022-11-15T19:04:33.336Z,99.97
2022-11-15T19:07:01.159Z,100.00
2022-11-15T19:09:32.892Z,100.00
2022-11-15T19:12:01.314Z,100.00
2022-11-15T19:14:29.477Z,100.00
2022-11-15T19:16:57.414Z,99.97
2022-11-15T19:19:28.337Z,99.99
2022-11-15T19:21:59.304Z,100.00
2022-11-15T19:24:27.632Z,100.00
2022-11-15T19:26:55.649Z,100.00
2022-11-15T19:29:23.796Z,100.00
2022-11-15T19:31:51.788Z,100.00
2022-11-15T19:34:41.666Z,100.00
2022-11-15T19:37:09.800Z,100.00
2022-11-15T19:39:41.033Z,100.00
2022-11-15T19:42:09.255Z,100.00
2022-11-15T19:44:37.217Z,100.00
2022-11-15T19:47:06.510Z,100.00
2022-11-15T19:49:34.387Z,100.00
2022-11-15T19:52:02.236Z,100.00
2022-11-15T19:54:30.501Z,100.00
2022-11-15T19:56:58.414Z,100.00
2022-11-15T19:59:26.286Z,100.00
2022-11-15T20:01:54.239Z,100.00
2022-11-15T20:04:22.315Z,100.00
2022-11-15T20:06:50.337Z,100.00
2022-11-15T20:09:18.394Z,100.00
2022-11-15T20:11:47.238Z,100.00
2022-11-15T20:14:15.353Z,100.00
2022-11-15T20:16:43.353Z,100.00
2022-11-15T20:19:12.517Z,100.00
2022-11-15T20:22:35.404Z,100.00
2022-11-15T20:25:03.376Z,100.00
2022-11-15T20:27:31.161Z,100.00
2022-11-15T20:29:58.990Z,100.00
2022-11-15T20:32:27.762Z,100.00
2022-11-15T20:34:55.612Z,100.00
2022-11-15T20:37:23.628Z,100.00
2022-11-15T20:39:52.011Z,100.00
2022-11-15T20:42:20.091Z,100.00
2022-11-15T20:44:48.115Z,100.00
2022-11-15T20:47:15.989Z,100.00
2022-11-15T20:49:44.058Z,100.00
2022-11-15T20:52:11.888Z,100.00
2022-11-15T20:54:39.748Z,100.00
2022-11-15T20:57:17.683Z,100.00
2022-11-15T20:59:45.697Z,100.00
2022-11-15T21:02:14.668Z,100.00
2022-11-15T21:04:43.165Z,100.00
2022-11-15T21:07:11.130Z,100.00
2022-11-15T21:09:58.092Z,100.00
2022-11-15T21:12:26.025Z,100.00
2022-11-15T21:14:53.863Z,100.00
2022-11-15T21:17:21.690Z,100.00
2022-11-15T21:19:49.573Z,100.00
2022-11-15T21:22:17.573Z,100.00
2022-11-15T21:24:45.709Z,100.00
2022-11-15T21:27:13.621Z,100.00
2022-11-15T21:29:45.657Z,100.00
2022-11-15T21:32:13.710Z,100.00
2022-11-15T21:34:41.530Z,100.00
2022-11-15T21:37:10.657Z,100.00
2022-11-15T21:39:38.911Z,100.00
2022-11-15T21:42:06.921Z,100.00
2022-11-15T21:44:34.774Z,100.00
2022-11-15T21:47:02.718Z,100.00
2022-11-15T21:49:30.677Z,100.00
2022-11-15T21:51:58.642Z,100.00
2022-11-15T21:54:26.695Z,100.00
2022-11-15T21:56:54.545Z,100.00
2022-11-15T21:59:22.447Z,100.00
2022-11-15T22:02:08.926Z,100.00
2022-11-15T22:04:36.912Z,100.00
2022-11-15T22:07:04.742Z,100.00
2022-11-15T22:09:32.600Z,100.00
2022-11-15T22:12:00.532Z,100.00
2022-11-15T22:14:28.500Z,100.00
2022-11-15T22:16:56.382Z,100.00
2022-11-15T22:19:24.332Z,100.00
2022-11-15T22:21:52.300Z,100.00
2022-11-15T22:24:21.613Z,100.00
2022-11-15T22:26:49.579Z,100.00
2022-11-15T22:29:17.487Z,100.00
2022-11-15T22:31:45.522Z,100.00
2022-11-15T22:34:13.528Z,100.00
2022-11-15T22:37:13.038Z,100.00
2022-11-15T22:39:33.446Z,100.00
2022-11-15T22:42:01.410Z,100.00
2022-11-15T22:44:29.512Z,100.00
2022-11-15T22:46:57.364Z,100.00
2022-11-15T22:49:25.247Z,100.00
2022-11-15T22:51:53.085Z,100.00
2022-11-15T22:54:21.163Z,100.00
2022-11-15T22:56:49.150Z,100.00
2022-11-15T22:59:17.580Z,100.00
2022-11-15T23:01:45.722Z,100.00
2022-11-15T23:04:13.670Z,100.00
2022-11-15T23:06:41.617Z,100.00
2022-11-15T23:09:10.144Z,100.00
2022-11-15T23:11:56.530Z,100.00
2022-11-15T23:14:24.684Z,100.00
2022-11-15T23:16:52.569Z,100.00
2022-11-15T23:19:20.469Z,100.00
2022-11-15T23:22:06.899Z,100.00
2022-11-15T23:24:34.899Z,100.00
2022-11-15T23:27:07.289Z,100.00
2022-11-15T23:29:56.866Z,100.00
2022-11-15T23:32:43.077Z,100.00
2022-11-15T23:35:11.036Z,100.00
2022-11-15T23:37:39.157Z,100.00
2022-11-15T23:40:08.019Z,100.00
2022-11-15T23:42:36.208Z,100.00
2022-11-15T23:45:04.708Z,100.00
2022-11-15T23:47:32.745Z,100.00
2022-11-15T23:50:01.058Z,100.00
2022-11-15T23:52:29.095Z,100.00
2022-11-15T23:54:57.064Z,100.00
2022-11-15T23:57:25.007Z,100.00
2022-11-15T23:59:53.243Z,100.00
